Time;durP1;ratioP1;P1;durP2;ratioP2;P2;SDS_P1;SDS_P2;PMS_P1;PMS_P2;Temp;Humidity;BMP_temperature;BMP_pressure;BME280_temperature;BME280_humidity;BME280_pressure;Samples;Min_cycle;Max_cycle;Signal;HPM_P1;HPM_P2
2022/01/20 00:02:17;;;;;;;0.05;0.05;;;;;;;0.88;100.00;100739.38;5023553;28;20517;-79
2022/01/20 00:04:52;;;;;;;0.10;0.10;;;;;;;0.83;100.00;100731.97;5022422;28;20042;-78
2022/01/20 00:07:32;;;;;;;0.10;0.10;;;;;;;0.87;100.00;100726.19;5026338;28;20060;-78
2022/01/20 00:27:16;;;;;;;0.10;0.10;;;;;;;0.59;100.00;100725.47;5028483;28;20049;-78
2022/01/20 00:30:14;;;;;;;0.00;0.00;;;;;;;0.55;100.00;100734.97;5022312;28;20045;-77
2022/01/20 00:32:51;;;;;;;0.00;0.00;;;;;;;0.54;100.00;100730.66;5018586;28;20072;-79
2022/01/20 00:35:24;;;;;;;0.08;0.08;;;;;;;0.55;100.00;100726.94;5031432;28;20076;-79
2022/01/20 00:37:52;;;;;;;0.00;0.00;;;;;;;0.47;100.00;100727.16;5019797;28;20057;-78
2022/01/20 00:40:25;;;;;;;0.10;0.10;;;;;;;0.57;100.00;100732.09;5027736;28;20060;-78
2022/01/20 00:42:58;;;;;;;0.08;0.08;;;;;;;0.57;100.00;100716.03;5035249;28;20476;-78
2022/01/20 00:45:31;;;;;;;0.03;0.03;;;;;;;0.75;100.00;100726.06;5039984;28;20428;-79
2022/01/20 00:48:05;;;;;;;0.00;0.00;;;;;;;0.81;100.00;100714.47;5016376;28;20053;-78
2022/01/20 00:50:35;;;;;;;0.10;0.10;;;;;;;0.83;100.00;100707.88;5028679;28;20048;-79
2022/01/20 00:53:08;;;;;;;0.08;0.08;;;;;;;0.96;100.00;100714.19;5028537;28;20390;-79
2022/01/20 00:55:39;;;;;;;0.10;0.10;;;;;;;0.98;100.00;100688.81;5013690;28;20075;-78
2022/01/20 00:58:12;;;;;;;0.03;0.03;;;;;;;1.02;100.00;100695.41;5017480;28;20049;-78
2022/01/20 01:00:40;;;;;;;0.05;0.05;;;;;;;1.02;100.00;100700.75;5023757;28;20052;-77
2022/01/20 01:03:09;;;;;;;0.10;0.10;;;;;;;1.07;100.00;100704.66;5021624;28;20049;-78
2022/01/20 01:05:58;;;;;;;0.08;0.08;;;;;;;1.12;100.00;100700.28;5022834;28;20449;-80
2022/01/20 01:08:26;;;;;;;0.10;0.10;;;;;;;1.13;100.00;100706.44;5024046;28;20056;-78
2022/01/20 01:10:59;;;;;;;0.10;0.10;;;;;;;1.20;100.00;100704.53;5032304;28;20486;-78
2022/01/20 01:13:32;;;;;;;0.10;0.10;;;;;;;1.18;100.00;100685.19;5029214;28;20051;-78
2022/01/20 01:16:01;;;;;;;0.00;0.00;;;;;;;1.41;100.00;100713.25;5028968;28;20412;-78
2022/01/20 01:21:30;;;;;;;0.10;0.10;;;;;;;1.44;100.00;100702.13;5044513;28;20489;-78
2022/01/20 01:24:03;;;;;;;0.20;0.20;;;;;;;1.41;100.00;100705.22;5026620;28;20072;-79
2022/01/20 01:26:31;;;;;;;0.10;0.10;;;;;;;1.40;100.00;100692.88;5024508;28;20057;-77
2022/01/20 01:29:15;;;;;;;0.10;0.10;;;;;;;1.44;100.00;100699.44;5017829;28;20045;-78
2022/01/20 01:31:43;;;;;;;0.10;0.10;;;;;;;1.41;100.00;100695.31;5016127;28;20057;-78
2022/01/20 01:34:14;;;;;;;0.00;0.00;;;;;;;1.48;100.00;100708.69;5016905;28;20340;-78
2022/01/20 01:37:02;;;;;;;0.10;0.10;;;;;;;1.44;100.00;100691.41;5024186;28;20042;-76
2022/01/20 01:39:36;;;;;;;0.17;0.17;;;;;;;1.49;100.00;100697.75;5016804;28;20045;-78
2022/01/20 01:42:10;;;;;;;0.10;0.10;;;;;;;1.55;100.00;100706.75;5014129;28;20037;-77
2022/01/20 01:44:38;;;;;;;0.00;0.00;;;;;;;1.58;100.00;100717.06;5020166;28;20034;-77
2022/01/20 01:47:12;;;;;;;0.10;0.10;;;;;;;1.36;100.00;100724.66;5021154;28;20057;-78
2022/01/20 01:49:40;;;;;;;0.10;0.10;;;;;;;1.16;100.00;100720.25;5032513;28;20053;-78
2022/01/20 01:52:10;;;;;;;0.00;0.00;;;;;;;1.08;100.00;100722.34;5028083;28;20057;-76
2022/01/20 01:54:43;;;;;;;0.10;0.10;;;;;;;0.93;100.00;100722.66;5031492;28;20049;-78
2022/01/20 01:57:16;;;;;;;0.00;0.00;;;;;;;0.94;100.00;100722.44;5025958;28;20033;-76
2022/01/20 01:59:50;;;;;;;0.10;0.10;;;;;;;0.96;100.00;100724.91;5014293;28;20049;-77
2022/01/20 02:02:25;;;;;;;0.00;0.00;;;;;;;0.93;100.00;100710.06;5022334;28;20084;-77
2022/01/20 02:05:02;;;;;;;0.00;0.00;;;;;;;0.89;100.00;100724.94;5017659;28;20052;-78
2022/01/20 02:08:11;;;;;;;0.10;0.10;;;;;;;0.87;100.00;100708.28;5024922;28;20052;-78
2022/01/20 02:19:18;;;;;;;0.10;0.10;;;;;;;0.73;100.00;100686.06;5023774;28;20056;-79
2022/01/20 02:22:04;;;;;;;0.00;0.00;;;;;;;0.81;100.00;100703.75;5019521;28;20046;-77
2022/01/20 02:24:55;;;;;;;0.10;0.10;;;;;;;0.79;100.00;100697.81;5029094;28;20409;-78
2022/01/20 02:27:23;;;;;;;0.00;0.00;;;;;;;0.81;100.00;100704.56;5018205;28;20054;-79
2022/01/20 02:29:56;;;;;;;0.10;0.10;;;;;;;0.82;100.00;100706.22;5017805;28;20053;-78
2022/01/20 02:32:30;;;;;;;0.00;0.00;;;;;;;0.84;100.00;100706.00;5018881;28;20050;-76
2022/01/20 02:35:07;;;;;;;0.00;0.00;;;;;;;0.84;100.00;100697.97;5024809;28;20514;-77
2022/01/20 02:37:45;;;;;;;0.10;0.10;;;;;;;0.80;100.00;100681.50;5021192;28;20042;-78
2022/01/20 02:44:47;;;;;;;0.10;0.10;;;;;;;0.76;100.00;100676.78;5023411;28;20057;-78
2022/01/20 02:46:12;;;;;;;0.10;0.10;;;;;;;0.90;100.00;100688.22;5017423;28;20088;-77
2022/01/20 02:48:45;;;;;;;0.05;0.05;;;;;;;0.88;100.00;100684.97;5019355;28;20045;-78
2022/01/20 02:51:18;;;;;;;0.00;0.00;;;;;;;0.85;100.00;100707.66;5020442;28;20049;-77
2022/01/20 02:53:57;;;;;;;0.10;0.10;;;;;;;0.89;100.00;100702.69;5017868;28;20061;-77
2022/01/20 02:56:30;;;;;;;0.10;0.10;;;;;;;0.78;100.00;100691.59;5021965;28;20448;-78
2022/01/20 02:59:03;;;;;;;0.10;0.10;;;;;;;0.89;100.00;100702.69;5024160;28;20057;-78
2022/01/20 03:01:37;;;;;;;0.10;0.10;;;;;;;0.90;100.00;100713.19;5022898;28;20049;-78
2022/01/20 03:04:11;;;;;;;0.10;0.10;;;;;;;0.92;100.00;100712.97;5022090;28;20413;-78
2022/01/20 03:06:44;;;;;;;0.10;0.10;;;;;;;0.91;100.00;100719.38;5019755;28;20069;-78
2022/01/20 03:09:19;;;;;;;0.10;0.10;;;;;;;0.83;100.00;100704.38;5021390;28;20046;-78
2022/01/20 03:11:54;;;;;;;0.10;0.10;;;;;;;0.80;100.00;100719.03;5019964;28;20060;-78
2022/01/20 03:14:27;;;;;;;0.10;0.10;;;;;;;0.73;100.00;100714.72;5020825;28;20058;-79
2022/01/20 03:17:00;;;;;;;0.10;0.10;;;;;;;0.70;100.00;100713.28;5015097;28;20050;-78
2022/01/20 03:19:33;;;;;;;0.00;0.00;;;;;;;0.60;100.00;100720.97;5024979;28;20045;-78
2022/01/20 03:22:07;;;;;;;0.10;0.10;;;;;;;0.61;100.00;100734.13;5024597;28;20045;-77
2022/01/20 03:24:41;;;;;;;0.10;0.10;;;;;;;0.62;100.00;100727.75;5023048;28;20053;-78
2022/01/20 03:27:10;;;;;;;0.10;0.10;;;;;;;0.52;100.00;100732.72;5020492;28;20406;-78
2022/01/20 03:29:43;;;;;;;0.10;0.10;;;;;;;0.60;100.00;100745.88;5018212;28;20057;-78
2022/01/20 03:32:17;;;;;;;0.10;0.10;;;;;;;0.51;100.00;100747.13;5015271;28;20056;-77
2022/01/20 03:34:50;;;;;;;0.10;0.10;;;;;;;0.53;100.00;100763.84;5032287;28;20081;-77
2022/01/20 03:37:23;;;;;;;0.10;0.10;;;;;;;0.49;100.00;100760.75;5023519;28;20045;-79
2022/01/20 03:40:08;;;;;;;0.10;0.10;;;;;;;0.40;100.00;100772.75;5015066;28;20410;-78
2022/01/20 03:42:42;;;;;;;;;;;;;;;0.36;100.00;100774.19;5015939;28;20054;-78
2022/01/20 03:45:10;;;;;;;0.10;0.10;;;;;;;0.33;100.00;100780.78;5019890;28;20404;-78
2022/01/20 03:47:44;;;;;;;0.03;0.03;;;;;;;0.23;100.00;100792.94;5018569;28;20528;-79
2022/01/20 03:53:05;;;;;;;0.03;0.03;;;;;;;0.33;100.00;100790.66;5023267;28;20056;-78
2022/01/20 03:55:41;;;;;;;0.10;0.10;;;;;;;0.28;100.00;100791.28;5013237;28;20049;-78
2022/01/20 03:58:13;;;;;;;0.10;0.10;;;;;;;0.26;100.00;100790.69;5021624;28;20053;-77
2022/01/20 04:00:47;;;;;;;0.05;0.05;;;;;;;0.19;100.00;100792.53;5021084;28;20053;-77
2022/01/20 04:03:26;;;;;;;0.00;0.00;;;;;;;0.20;100.00;100802.22;5023456;28;20053;-77
2022/01/20 04:06:10;;;;;;;0.10;0.10;;;;;;;0.22;100.00;100802.00;5024176;28;20049;-78
2022/01/20 04:08:47;;;;;;;0.10;0.10;;;;;;;0.24;100.00;100805.31;5021356;28;20049;-77
2022/01/20 04:11:23;;;;;;;0.10;0.10;;;;;;;0.24;100.00;100818.69;5018449;28;20532;-78
2022/01/20 04:13:57;;;;;;;0.10;0.10;;;;;;;0.21;100.00;100808.38;5024396;28;20044;-77
2022/01/20 04:16:36;;;;;;;0.10;0.10;;;;;;;0.12;100.00;100813.13;5017900;28;20045;-78
2022/01/20 04:19:11;;;;;;;0.00;0.00;;;;;;;0.18;100.00;100820.34;5021290;28;20046;-78
2022/01/20 04:21:45;;;;;;;0.00;0.00;;;;;;;0.12;100.00;100815.81;5025180;28;20045;-76
2022/01/20 04:24:18;;;;;;;0.10;0.10;;;;;;;0.05;100.00;100801.63;5040110;28;20502;-78
2022/01/20 04:26:53;;;;;;;0.10;0.10;;;;;;;0.05;100.00;100798.94;5019415;28;20057;-77
2022/01/20 04:29:26;;;;;;;0.10;0.10;;;;;;;0.03;100.00;100785.78;5043365;28;20068;-78
2022/01/20 04:32:00;;;;;;;0.10;0.10;;;;;;;0.09;100.00;100786.78;5017427;28;20038;-77
2022/01/20 04:34:33;;;;;;;0.10;0.10;;;;;;;0.01;100.00;100787.81;5020569;28;20061;-78
2022/01/20 04:37:07;;;;;;;0.10;0.10;;;;;;;0.09;100.00;100802.84;5019066;28;20045;-77
2022/01/20 04:39:42;;;;;;;0.10;0.10;;;;;;;0.09;100.00;100824.25;5043955;28;20056;-78
2022/01/20 04:42:19;;;;;;;0.10;0.10;;;;;;;0.14;100.00;100829.81;5020536;28;20524;-77
2022/01/20 04:44:56;;;;;;;0.10;0.10;;;;;;;0.13;100.00;100831.66;5025542;28;20060;-77
2022/01/20 04:47:38;;;;;;;0.10;0.10;;;;;;;0.04;100.00;100827.53;5026158;28;20058;-77
2022/01/20 04:58:40;;;;;;;0.03;0.03;;;;;;;-0.04;100.00;100851.84;5025471;28;20045;-78
2022/01/20 05:01:14;;;;;;;0.10;0.10;;;;;;;-0.09;100.00;100860.47;5013415;28;20060;-78
2022/01/20 05:04:14;;;;;;;0.10;0.10;;;;;;;-0.01;100.00;100862.94;5016119;28;20065;-77
2022/01/20 05:07:01;;;;;;;0.10;0.10;;;;;;;-0.05;100.00;100869.72;5035797;28;20072;-77
2022/01/20 05:09:35;;;;;;;0.10;0.10;;;;;;;-0.07;100.00;100874.47;5016483;28;20057;-79
2022/01/20 05:12:11;;;;;;;0.10;0.10;;;;;;;-0.11;100.00;100888.44;5029786;28;20056;-79
2022/01/20 05:14:46;;;;;;;0.10;0.10;;;;;;;-0.20;100.00;100874.44;5022777;28;20053;-78
2022/01/20 05:17:20;;;;;;;0.10;0.10;;;;;;;-0.22;100.00;100880.00;5021947;28;20057;-77
2022/01/20 05:19:53;;;;;;;0.10;0.10;;;;;;;-0.21;100.00;100886.16;5029513;28;20430;-77
2022/01/20 05:22:26;;;;;;;0.10;0.10;;;;;;;-0.25;100.00;100895.63;5027045;28;20064;-77
2022/01/20 05:24:58;;;;;;;0.10;0.10;;;;;;;-0.21;100.00;100889.69;5018207;28;20053;-78
2022/01/20 05:27:32;;;;;;;0.10;0.10;;;;;;;-0.24;100.00;100886.59;5019625;28;20060;-77
2022/01/20 05:30:09;;;;;;;0.10;0.10;;;;;;;-0.27;100.00;100898.50;5014877;28;20056;-78
2022/01/20 05:33:01;;;;;;;0.10;0.10;;;;;;;-0.20;100.00;100911.91;5022645;28;20052;-78
2022/01/20 05:35:35;;;;;;;0.10;0.10;;;;;;;-0.24;100.00;100907.97;5038563;28;20053;-78
2022/01/20 05:38:09;;;;;;;0.10;0.10;;;;;;;-0.19;100.00;100918.91;5023792;28;20082;-78
2022/01/20 05:40:45;;;;;;;0.10;0.10;;;;;;;-0.21;100.00;100911.09;5020468;28;20050;-76
2022/01/20 05:43:20;;;;;;;0.10;0.10;;;;;;;-0.21;100.00;100912.91;5019481;28;20053;-77
2022/01/20 05:45:55;;;;;;;0.10;0.10;;;;;;;-0.28;100.00;100912.09;5018057;28;20045;-78
2022/01/20 05:48:34;;;;;;;0.20;0.20;;;;;;;-0.25;100.00;100915.19;5023923;28;21115;-76
2022/01/20 05:51:25;;;;;;;0.10;0.10;;;;;;;-0.22;100.00;100928.16;5033377;28;20056;-77
2022/01/20 05:53:54;;;;;;;0.10;0.10;;;;;;;-0.24;100.00;100932.06;5025954;28;20054;-77
2022/01/20 05:56:29;;;;;;;0.10;0.10;;;;;;;-0.12;100.00;100927.75;5030411;28;20072;-77
2022/01/20 05:59:03;;;;;;;0.10;0.10;;;;;;;-0.24;100.00;100924.84;5023861;28;20429;-79
2022/01/20 06:01:39;;;;;;;0.10;0.10;;;;;;;-0.35;100.00;100936.97;5026433;28;20056;-76
2022/01/20 06:04:15;;;;;;;0.20;0.20;;;;;;;-0.30;100.00;100943.53;5016358;28;20050;-77
2022/01/20 06:06:44;;;;;;;0.10;0.10;;;;;;;-0.33;100.00;100939.44;5021811;28;20050;-77
2022/01/20 06:09:17;;;;;;;0.10;0.10;;;;;;;-0.36;100.00;100929.13;5023572;28;20045;-77
2022/01/20 06:11:50;;;;;;;0.10;0.10;;;;;;;-0.36;100.00;100934.47;5018291;28;20060;-78
2022/01/20 06:14:18;;;;;;;0.10;0.10;;;;;;;-0.39;100.00;100932.22;5024889;28;20541;-78
2022/01/20 06:16:53;;;;;;;0.08;0.08;;;;;;;-0.42;100.00;100929.94;5023362;28;20049;-77
2022/01/20 06:19:21;;;;;;;0.10;0.10;;;;;;;-0.41;100.00;100932.41;5030275;28;20050;-77
2022/01/20 06:21:55;;;;;;;0.10;0.10;;;;;;;-0.41;100.00;100937.75;5024178;28;20054;-77
2022/01/20 06:24:28;;;;;;;0.20;0.10;;;;;;;-0.47;100.00;100932.38;5014525;28;20065;-77
2022/01/20 06:27:02;;;;;;;0.10;0.10;;;;;;;-0.39;100.00;100953.59;5032229;28;20046;-77
2022/01/20 06:29:30;;;;;;;0.10;0.10;;;;;;;-0.37;100.00;100943.53;5025711;28;20049;-77
2022/01/20 06:31:59;;;;;;;0.10;0.10;;;;;;;-0.31;100.00;100960.63;5020861;28;20422;-78
2022/01/20 06:34:28;;;;;;;0.10;0.10;;;;;;;-0.40;100.00;100958.13;5025070;28;20046;-77
2022/01/20 06:37:01;;;;;;;0.15;0.15;;;;;;;-0.38;100.00;100961.41;5042388;28;20056;-77
2022/01/20 06:39:34;;;;;;;0.10;0.10;;;;;;;-0.35;100.00;100970.91;5014185;28;20061;-77
2022/01/20 06:42:08;;;;;;;0.10;0.10;;;;;;;-0.39;100.00;100977.66;5023618;28;20501;-77
2022/01/20 06:44:42;;;;;;;0.10;0.10;;;;;;;-0.43;100.00;100981.75;5019983;28;20042;-77
2022/01/20 06:47:19;;;;;;;0.10;0.10;;;;;;;-0.33;100.00;100986.75;5041069;28;20414;-77
2022/01/20 06:49:52;;;;;;;0.10;0.10;;;;;;;-0.30;100.00;101005.91;5019214;28;20049;-77
2022/01/20 06:52:27;;;;;;;0.10;0.10;;;;;;;-0.29;100.00;100998.69;5023795;28;20383;-77
2022/01/20 06:55:00;;;;;;;0.10;0.10;;;;;;;-0.22;100.00;101010.22;5021349;28;20046;-78
2022/01/20 06:57:34;;;;;;;0.10;0.10;;;;;;;-0.27;100.00;101002.81;5021736;28;20661;-76
2022/01/20 07:00:10;;;;;;;0.10;0.10;;;;;;;-0.37;100.00;101003.19;5018920;28;20061;-77
2022/01/20 07:02:46;;;;;;;0.10;0.10;;;;;;;-0.43;100.00;100995.13;5022123;28;20076;-77
2022/01/20 07:05:17;;;;;;;0.20;0.20;;;;;;;-0.39;100.00;101013.28;5018508;28;20045;-77
2022/01/20 07:07:50;;;;;;;0.20;0.20;;;;;;;-0.43;100.00;101008.50;5015434;28;20045;-75
2022/01/20 07:10:24;;;;;;;0.10;0.10;;;;;;;-0.49;100.00;101026.16;5027950;28;20061;-79
2022/01/20 07:12:55;;;;;;;0.10;0.10;;;;;;;-0.45;100.00;101015.91;5018668;28;20056;-78
2022/01/20 07:15:24;;;;;;;0.10;0.10;;;;;;;-0.44;100.00;101036.25;5017985;28;20050;-77
2022/01/20 07:17:54;;;;;;;0.17;0.17;;;;;;;-0.47;100.00;101025.97;5021478;28;20058;-77
2022/01/20 07:20:25;;;;;;;0.10;0.10;;;;;;;-0.43;100.00;101037.91;5020264;28;20053;-76
2022/01/20 07:23:09;;;;;;;0.10;0.10;;;;;;;-0.37;100.00;101029.94;5012916;28;20053;-77
2022/01/20 07:25:59;;;;;;;0.10;0.10;;;;;;;-0.45;100.00;101013.25;5016010;28;20433;-78
2022/01/20 07:28:34;;;;;;;0.10;0.10;;;;;;;-0.43;100.00;101033.41;5020154;28;20061;-79
2022/01/20 07:31:03;;;;;;;0.10;0.10;;;;;;;-0.37;100.00;101024.59;5016522;28;20069;-78
2022/01/20 07:33:38;;;;;;;0.10;0.10;;;;;;;-0.35;100.00;101043.09;5029830;28;20104;-77
2022/01/20 07:36:06;;;;;;;0.20;0.20;;;;;;;-0.32;100.00;101058.75;5012830;28;20052;-77
2022/01/20 07:38:34;;;;;;;0.20;0.20;;;;;;;-0.28;100.00;101040.47;5027622;28;20053;-77
2022/01/20 07:41:07;;;;;;;0.10;0.10;;;;;;;-0.26;100.00;101046.44;5018332;28;20061;-77
2022/01/20 07:43:41;;;;;;;0.20;0.20;;;;;;;-0.24;100.00;101053.22;5015238;28;20516;-76
2022/01/20 07:46:28;;;;;;;0.20;0.20;;;;;;;-0.22;100.00;101064.56;5041044;28;20061;-78
2022/01/20 07:49:06;;;;;;;0.13;0.13;;;;;;;-0.25;100.00;101059.63;5023297;28;20053;-78
2022/01/20 07:51:41;;;;;;;0.10;0.10;;;;;;;-0.15;100.00;101067.28;5023089;28;20054;-77
2022/01/20 07:54:14;;;;;;;0.10;0.10;;;;;;;-0.20;100.00;101067.84;5028574;28;20053;-78
2022/01/20 07:56:42;;;;;;;0.10;0.10;;;;;;;-0.23;100.00;101068.25;5019358;28;20054;-78
2022/01/20 07:59:16;;;;;;;0.20;0.20;;;;;;;-0.21;100.00;101086.78;5031035;28;20341;-77
2022/01/20 08:01:50;;;;;;;0.10;0.10;;;;;;;-0.15;100.00;101072.63;5022793;28;20046;-77
2022/01/20 08:04:19;;;;;;;0.10;0.10;;;;;;;-0.19;100.00;101096.25;5018475;28;20058;-76
2022/01/20 08:06:55;;;;;;;0.20;0.20;;;;;;;-0.12;100.00;101098.97;5041810;28;20054;-77
2022/01/20 08:09:29;;;;;;;0.10;0.10;;;;;;;-0.12;100.00;101103.50;5022106;28;20064;-77
2022/01/20 08:12:06;;;;;;;0.15;0.15;;;;;;;-0.16;100.00;101089.69;5024245;28;20054;-78
2022/01/20 08:14:47;;;;;;;0.10;0.10;;;;;;;-0.16;100.00;101102.25;5040969;28;20515;-78
2022/01/20 08:17:34;;;;;;;0.20;0.20;;;;;;;-0.13;100.00;101104.53;5022702;28;20053;-76
2022/01/20 08:20:11;;;;;;;0.20;0.20;;;;;;;-0.20;100.00;101091.94;5026143;28;20433;-79
2022/01/20 08:22:51;;;;;;;0.10;0.10;;;;;;;-0.09;100.00;101089.72;5021237;28;20049;-80
2022/01/20 08:25:25;;;;;;;0.10;0.10;;;;;;;-0.10;100.00;101094.25;5023812;28;20107;-80
2022/01/20 08:28:00;;;;;;;0.20;0.20;;;;;;;-0.06;100.00;101090.16;5019381;28;20057;-79
2022/01/20 08:30:41;;;;;;;0.10;0.10;;;;;;;-0.01;100.00;101094.91;5015962;28;20046;-78
2022/01/20 08:33:15;;;;;;;0.20;0.20;;;;;;;0.01;100.00;101082.16;5031738;28;20048;-79
2022/01/20 08:35:55;;;;;;;0.15;0.15;;;;;;;0.06;100.00;101090.41;5021528;28;20056;-79
2022/01/20 08:38:48;;;;;;;0.10;0.10;;;;;;;0.07;100.00;101094.75;5022158;28;20072;-77
2022/01/20 08:41:22;;;;;;;0.10;0.10;;;;;;;0.06;100.00;101105.66;5031317;28;20057;-77
2022/01/20 08:43:56;;;;;;;0.20;0.20;;;;;;;0.12;100.00;101084.25;5038286;28;20464;-78
2022/01/20 08:46:30;;;;;;;0.10;0.10;;;;;;;0.07;100.00;101081.38;5020771;28;20053;-78
2022/01/20 08:49:03;;;;;;;0.10;0.10;;;;;;;0.21;100.00;101089.41;5017678;28;20046;-78
2022/01/20 08:51:52;;;;;;;0.10;0.10;;;;;;;0.20;100.00;101093.97;5017954;28;20063;-78
2022/01/20 08:54:26;;;;;;;0.10;0.10;;;;;;;0.19;100.00;101084.28;5018057;28;20049;-78
2022/01/20 08:57:05;;;;;;;0.10;0.10;;;;;;;0.28;100.00;101096.47;5007497;28;20060;-78
2022/01/20 08:59:42;;;;;;;0.20;0.20;;;;;;;0.38;100.00;101098.75;5014639;28;20261;-76
2022/01/20 09:02:15;;;;;;;0.10;0.10;;;;;;;0.43;100.00;101092.78;5005689;28;20741;-77
2022/01/20 09:04:49;;;;;;;0.10;0.10;;;;;;;0.42;100.00;101107.22;5006175;28;20610;-78
2022/01/20 09:07:42;;;;;;;0.10;0.10;;;;;;;0.52;100.00;101094.25;5007099;28;20496;-79
2022/01/20 09:10:19;;;;;;;0.10;0.10;;;;;;;0.49;100.00;101074.06;5010183;28;20054;-77
2022/01/20 09:15:46;;;;;;;0.10;0.10;;;;;;;0.55;100.00;101090.34;5008228;28;20057;-79
2022/01/20 09:18:27;;;;;;;0.15;0.15;;;;;;;0.47;100.00;101084.16;5008431;28;21134;-79
2022/01/20 09:20:55;;;;;;;0.20;0.20;;;;;;;0.52;100.00;101091.56;5008279;28;20751;-79
2022/01/20 09:23:31;;;;;;;0.10;0.10;;;;;;;0.67;100.00;101097.56;5009683;28;20072;-79
2022/01/20 09:26:04;;;;;;;0.20;0.20;;;;;;;0.56;100.00;101100.03;5001757;28;20062;-79
2022/01/20 09:28:37;;;;;;;0.13;0.13;;;;;;;0.58;100.00;101114.03;5005561;28;20060;-78
2022/01/20 09:31:15;;;;;;;0.10;0.10;;;;;;;0.55;100.00;101099.19;4991564;28;20612;-77
2022/01/20 09:33:44;;;;;;;0.20;0.20;;;;;;;0.65;100.00;101114.91;4996683;28;21035;-79
2022/01/20 09:36:19;;;;;;;0.10;0.10;;;;;;;0.72;100.00;101120.25;4997122;28;21340;-79
2022/01/20 09:38:55;;;;;;;0.13;0.13;;;;;;;0.79;100.00;101116.56;5005400;28;20049;-79
2022/01/20 09:41:40;;;;;;;0.10;0.10;;;;;;;0.81;100.00;101111.00;4998816;28;20057;-80
2022/01/20 09:44:14;;;;;;;0.20;0.20;;;;;;;0.77;100.00;101110.56;5008757;28;20046;-77
2022/01/20 09:46:44;;;;;;;0.10;0.10;;;;;;;0.77;100.00;101128.50;5005214;28;20060;-79
2022/01/20 09:49:38;;;;;;;0.20;0.20;;;;;;;0.73;100.00;101124.56;4963857;28;20942;-80
2022/01/20 09:52:24;;;;;;;0.20;0.20;;;;;;;0.69;100.00;101142.91;4995136;28;20525;-79
2022/01/20 09:55:00;;;;;;;0.20;0.20;;;;;;;0.59;100.00;101113.00;4997567;28;20057;-79
2022/01/20 09:57:33;;;;;;;0.10;0.10;;;;;;;0.64;100.00;101124.78;4997708;28;20064;-79
2022/01/20 10:00:12;;;;;;;0.20;0.20;;;;;;;0.57;100.00;101126.63;4998468;28;20054;-81
2022/01/20 10:02:57;;;;;;;0.10;0.10;;;;;;;0.55;100.00;101115.25;5000838;28;20049;-78
2022/01/20 10:05:34;;;;;;;0.10;0.10;;;;;;;0.59;100.00;101111.16;5001104;28;20064;-77
2022/01/20 10:08:14;;;;;;;0.20;0.20;;;;;;;0.72;100.00;101121.09;5001644;28;20049;-78
2022/01/20 10:11:18;;;;;;;0.10;0.10;;;;;;;0.80;100.00;101125.41;4992528;28;20061;-78
2022/01/20 10:14:07;;;;;;;0.20;0.20;;;;;;;0.75;100.00;101118.00;5005023;28;20056;-80
2022/01/20 10:16:59;;;;;;;0.10;0.10;;;;;;;0.79;100.00;101123.78;5001340;28;20497;-79
2022/01/20 10:19:32;;;;;;;0.10;0.10;;;;;;;0.83;100.00;101128.53;5003870;28;20069;-79
2022/01/20 10:22:21;;;;;;;0.20;0.20;;;;;;;0.87;100.00;101131.63;4994738;28;20065;-78
2022/01/20 10:25:13;;;;;;;0.13;0.13;;;;;;;0.94;100.00;101139.66;5006685;28;20041;-78
2022/01/20 10:27:58;;;;;;;0.20;0.20;;;;;;;1.06;100.00;101147.91;4999284;28;20068;-79
2022/01/20 10:30:33;;;;;;;0.20;0.20;;;;;;;1.19;100.00;101143.38;4996898;28;20053;-78
2022/01/20 10:33:02;;;;;;;0.20;0.20;;;;;;;1.21;100.00;101137.00;4996007;28;20292;-78
2022/01/20 10:35:43;;;;;;;0.10;0.10;;;;;;;1.25;100.00;101141.72;5002269;28;20672;-78
2022/01/20 10:38:29;;;;;;;0.20;0.20;;;;;;;1.36;100.00;101142.97;5000277;28;20053;-78
2022/01/20 10:41:04;;;;;;;0.10;0.10;;;;;;;1.24;100.00;101139.25;5003551;28;20061;-79
2022/01/20 10:43:41;;;;;;;0.17;0.17;;;;;;;1.17;100.00;101139.25;5021504;28;20056;-79
2022/01/20 10:46:47;;;;;;;0.10;0.10;;;;;;;1.00;100.00;101144.22;4993381;28;20064;-78
2022/01/20 10:49:31;;;;;;;0.10;0.10;;;;;;;0.91;100.00;101148.09;4988658;28;20049;-79
2022/01/20 10:52:02;;;;;;;0.20;0.20;;;;;;;0.87;100.00;101146.84;4989011;28;20056;-79
2022/01/20 10:54:38;;;;;;;0.10;0.10;;;;;;;0.85;100.00;101139.03;5005529;28;20494;-79
2022/01/20 10:57:17;;;;;;;0.10;0.10;;;;;;;0.73;100.00;101133.44;5005579;28;20054;-79
2022/01/20 10:59:51;;;;;;;0.17;0.17;;;;;;;0.66;100.00;101141.47;5008666;28;20050;-78
2022/01/20 11:02:36;;;;;;;0.10;0.10;;;;;;;0.64;100.00;101132.00;5000735;28;21018;-78
2022/01/20 11:05:10;;;;;;;0.20;0.20;;;;;;;0.67;100.00;101161.84;5001538;28;20092;-78
2022/01/20 11:07:46;;;;;;;0.10;0.10;;;;;;;0.75;100.00;101152.00;5002120;28;20053;-78
2022/01/20 11:10:21;;;;;;;0.13;0.13;;;;;;;0.78;100.00;101154.28;5000369;28;20525;-77
2022/01/20 11:13:16;;;;;;;0.20;0.20;;;;;;;0.74;100.00;101137.75;5000742;28;20734;-77
2022/01/20 11:15:53;;;;;;;0.10;0.10;;;;;;;0.81;100.00;101132.44;4996320;28;20056;-77
2022/01/20 11:18:28;;;;;;;0.10;0.10;;;;;;;0.87;100.00;101141.50;4999745;28;20529;-77
2022/01/20 11:21:02;;;;;;;0.10;0.10;;;;;;;0.84;100.00;101130.19;5013789;28;20525;-77
2022/01/20 11:23:42;;;;;;;0.13;0.13;;;;;;;0.85;100.00;101120.28;5000507;28;20053;-79
2022/01/20 11:26:49;;;;;;;0.10;0.10;;;;;;;1.04;100.00;101129.38;4988462;28;20066;-79
2022/01/20 11:29:45;;;;;;;0.10;0.10;;;;;;;0.96;100.00;101118.84;5004335;28;20057;-77
2022/01/20 11:32:42;;;;;;;0.10;0.10;;;;;;;0.75;100.00;101111.81;5001654;28;20604;-79
2022/01/20 11:35:19;;;;;;;0.20;0.20;;;;;;;0.68;100.00;101122.53;5007744;28;20064;-78
2022/01/20 11:37:57;;;;;;;0.10;0.10;;;;;;;0.74;100.00;101123.56;5003610;28;20038;-79
2022/01/20 11:40:31;;;;;;;0.20;0.20;;;;;;;0.73;100.00;101129.94;5001540;28;20928;-79
2022/01/20 11:43:09;;;;;;;0.20;0.20;;;;;;;0.72;100.00;101117.56;4998082;28;20822;-79
2022/01/20 11:45:46;;;;;;;0.10;0.10;;;;;;;0.77;100.00;101115.09;5019883;28;20652;-81
2022/01/20 11:48:19;;;;;;;0.10;0.10;;;;;;;0.92;100.00;101125.66;5004316;28;20057;-80
2022/01/20 11:51:04;;;;;;;0.20;0.20;;;;;;;0.89;100.00;101129.56;5008604;28;20045;-77
2022/01/20 11:53:41;;;;;;;0.10;0.10;;;;;;;1.02;100.00;101118.00;5001976;28;20053;-78
2022/01/20 11:56:14;;;;;;;0.10;0.10;;;;;;;1.07;100.00;101130.81;5018897;28;20061;-79
2022/01/20 11:58:50;;;;;;;0.10;0.10;;;;;;;1.00;100.00;101130.81;5004756;28;20049;-78
2022/01/20 12:01:19;;;;;;;0.10;0.10;;;;;;;1.02;100.00;101126.91;5009727;28;20052;-78
2022/01/20 12:03:53;;;;;;;0.13;0.13;;;;;;;1.05;100.00;101147.09;5000411;28;20053;-81
2022/01/20 12:06:42;;;;;;;0.10;0.10;;;;;;;1.15;100.00;101134.09;4999487;28;20053;-77
2022/01/20 12:09:29;;;;;;;0.10;0.10;;;;;;;1.12;100.00;101133.69;4995959;28;20306;-77
2022/01/20 12:11:58;;;;;;;0.20;0.20;;;;;;;1.20;100.00;101149.56;5000926;28;20060;-77
2022/01/20 12:14:34;;;;;;;0.20;0.20;;;;;;;1.16;100.00;101135.75;4997283;28;20088;-78
2022/01/20 12:17:11;;;;;;;0.20;0.20;;;;;;;1.26;100.00;101132.66;5002946;28;20049;-79
2022/01/20 12:19:41;;;;;;;0.20;0.20;;;;;;;1.43;100.00;101135.75;5010977;28;20410;-76
2022/01/20 12:22:14;;;;;;;0.20;0.20;;;;;;;1.45;100.00;101116.75;5008144;28;20295;-79
2022/01/20 12:24:51;;;;;;;0.20;0.20;;;;;;;1.51;100.00;101138.22;5012360;28;20046;-77
2022/01/20 12:27:21;;;;;;;0.13;0.13;;;;;;;1.39;100.00;101099.66;5012616;28;20045;-78
2022/01/20 12:29:55;;;;;;;0.20;0.20;;;;;;;1.31;100.00;101099.84;5009429;28;20064;-79
2022/01/20 12:32:28;;;;;;;0.17;0.17;;;;;;;1.30;100.00;101080.28;5000768;28;20053;-78
2022/01/20 12:35:04;;;;;;;0.20;0.20;;;;;;;1.18;100.00;101085.44;4999460;28;20054;-79
2022/01/20 12:37:39;;;;;;;0.20;0.20;;;;;;;1.17;100.00;101094.53;4999925;28;20525;-78
2022/01/20 12:40:20;;;;;;;0.20;0.20;;;;;;;1.17;100.00;101097.22;4994755;28;20048;-79
2022/01/20 12:42:49;;;;;;;0.20;0.20;;;;;;;1.18;100.00;101120.28;5002109;28;20053;-77
2022/01/20 12:48:19;;;;;;;0.20;0.20;;;;;;;0.73;100.00;101154.88;5011384;28;20061;-78
2022/01/20 12:50:56;;;;;;;0.20;0.20;;;;;;;0.32;100.00;101180.69;4996395;28;20056;-79
2022/01/20 12:53:35;;;;;;;0.10;0.10;;;;;;;0.53;100.00;101181.59;4999717;28;20045;-78
2022/01/20 12:56:12;;;;;;;0.13;0.13;;;;;;;0.56;100.00;101164.31;4991906;28;20049;-80